createdAt,value
2019-03-25T00:01:48.288Z,83.30
2019-03-25T00:04:18.499Z,83.30
2019-03-25T00:06:48.584Z,83.10
2019-03-25T00:09:18.803Z,83.50
2019-03-25T00:11:48.908Z,79.00
2019-03-25T00:14:19.059Z,75.40
2019-03-25T00:16:49.278Z,72.70
2019-03-25T00:19:19.354Z,71.00
2019-03-25T00:21:49.450Z,70.90
2019-03-25T00:24:19.590Z,69.90
2019-03-25T00:26:49.876Z,69.70
2019-03-25T00:29:19.890Z,69.90
2019-03-25T00:31:50.055Z,69.40
2019-03-25T00:34:20.219Z,70.10
2019-03-25T00:36:50.427Z,70.90
2019-03-25T00:39:20.599Z,71.20
2019-03-25T00:41:50.667Z,74.10
2019-03-25T00:44:20.823Z,74.10
2019-03-25T00:46:50.968Z,74.30
2019-03-25T00:49:21.062Z,75.90
2019-03-25T00:51:51.136Z,76.40
2019-03-25T00:54:21.288Z,77.60
2019-03-25T00:56:51.508Z,78.80
2019-03-25T00:59:21.604Z,78.50
2019-03-25T01:01:51.763Z,79.80
2019-03-25T01:04:21.944Z,79.80
2019-03-25T01:06:52.093Z,80.60
2019-03-25T01:09:22.248Z,80.60
2019-03-25T01:11:52.473Z,80.80
2019-03-25T01:14:22.551Z,81.40
2019-03-25T01:16:52.709Z,80.90
2019-03-25T01:19:22.939Z,80.90
2019-03-25T01:21:53.081Z,80.10
2019-03-25T01:24:23.153Z,80.50
2019-03-25T01:26:53.385Z,80.00
2019-03-25T01:29:23.573Z,81.20
2019-03-25T01:31:53.610Z,82.00
2019-03-25T01:34:23.682Z,83.10
2019-03-25T01:36:53.783Z,83.60
2019-03-25T01:39:23.980Z,83.80
2019-03-25T01:41:54.093Z,84.30
2019-03-25T01:44:24.307Z,83.80
2019-03-25T01:46:54.516Z,82.30
2019-03-25T01:49:24.694Z,81.50
2019-03-25T01:51:54.813Z,80.80
2019-03-25T01:54:24.896Z,80.30
2019-03-25T01:56:55.107Z,80.80
2019-03-25T01:59:25.280Z,80.30
2019-03-25T02:01:55.308Z,81.00
2019-03-25T02:04:25.471Z,81.30
2019-03-25T02:06:55.616Z,80.90
2019-03-25T02:09:25.849Z,80.20
2019-03-25T02:11:55.914Z,80.90
2019-03-25T02:14:26.128Z,82.60
2019-03-25T02:16:56.098Z,84.30
2019-03-25T02:19:26.328Z,84.90
2019-03-25T02:21:56.474Z,84.40
2019-03-25T02:24:26.546Z,84.70
2019-03-25T02:26:56.625Z,85.30
2019-03-25T02:29:26.769Z,85.10
2019-03-25T02:31:56.952Z,85.00
2019-03-25T02:34:27.090Z,85.10
2019-03-25T02:36:57.179Z,85.60
2019-03-25T02:39:27.381Z,84.10
2019-03-25T02:42:00.550Z,83.60
2019-03-25T02:44:30.630Z,83.40
2019-03-25T02:47:00.748Z,83.80
2019-03-25T02:49:30.891Z,84.30
2019-03-25T02:52:01.111Z,85.90
2019-03-25T02:54:31.199Z,86.70
2019-03-25T02:57:01.414Z,87.00
2019-03-25T02:59:31.498Z,87.40
2019-03-25T03:02:01.632Z,88.00
2019-03-25T03:04:32.801Z,86.50
2019-03-25T03:07:02.877Z,85.10
2019-03-25T03:09:33.039Z,83.70
2019-03-25T03:12:03.249Z,82.80
2019-03-25T03:14:33.404Z,83.20
2019-03-25T03:17:03.563Z,83.50
2019-03-25T03:19:33.883Z,82.60
2019-03-25T03:22:03.885Z,83.30
2019-03-25T03:24:33.980Z,85.10
2019-03-25T03:27:04.128Z,84.10
2019-03-25T03:29:34.195Z,85.40
2019-03-25T03:32:04.315Z,86.80
2019-03-25T03:34:34.370Z,87.60
2019-03-25T03:37:04.533Z,88.50
2019-03-25T03:39:34.607Z,88.20
2019-03-25T03:42:04.903Z,88.40
2019-03-25T03:44:35.154Z,87.20
2019-03-25T03:47:05.336Z,89.20
2019-03-25T03:49:36.434Z,88.70
2019-03-25T03:52:06.593Z,86.70
2019-03-25T03:54:37.132Z,85.70
2019-03-25T03:57:08.043Z,84.80
2019-03-25T03:59:38.209Z,84.60
2019-03-25T04:02:08.210Z,84.60
2019-03-25T04:04:38.301Z,84.80
2019-03-25T04:07:08.453Z,85.20
2019-03-25T04:09:38.629Z,85.70
2019-03-25T04:12:08.776Z,84.50
2019-03-25T04:14:39.017Z,84.00
2019-03-25T04:17:09.173Z,84.00
2019-03-25T04:19:39.312Z,84.00
2019-03-25T04:22:09.398Z,84.60
2019-03-25T04:24:39.478Z,85.70
2019-03-25T04:27:09.563Z,85.60
2019-03-25T04:29:39.643Z,85.10
2019-03-25T04:32:09.842Z,86.30
2019-03-25T04:34:39.907Z,85.00
2019-03-25T04:37:10.069Z,85.90
2019-03-25T04:39:40.140Z,87.20
2019-03-25T04:42:10.251Z,88.10
2019-03-25T04:44:40.391Z,88.00
2019-03-25T04:47:10.495Z,87.70
2019-03-25T04:49:40.577Z,87.00
2019-03-25T04:52:10.806Z,86.80
2019-03-25T04:54:41.032Z,86.80
2019-03-25T04:57:11.181Z,87.00
2019-03-25T04:59:41.201Z,86.90
2019-03-25T05:02:11.219Z,87.90
2019-03-25T05:04:41.312Z,88.10
2019-03-25T05:07:11.386Z,88.70
2019-03-25T05:09:42.521Z,89.20
2019-03-25T05:12:12.662Z,89.70
2019-03-25T05:14:42.854Z,90.30
2019-03-25T05:17:13.024Z,90.20
2019-03-25T05:19:43.120Z,90.20
2019-03-25T05:22:13.279Z,90.60
2019-03-25T05:24:43.290Z,90.50
2019-03-25T05:27:13.465Z,90.40
2019-03-25T05:29:43.536Z,89.50
2019-03-25T05:32:13.687Z,89.10
2019-03-25T05:34:43.693Z,90.00
2019-03-25T05:37:13.961Z,88.10
2019-03-25T05:39:44.035Z,86.60
2019-03-25T05:42:14.170Z,85.70
2019-03-25T05:44:44.344Z,85.90
2019-03-25T05:47:14.422Z,83.10
2019-03-25T05:49:44.436Z,82.90
2019-03-25T05:52:14.580Z,83.30
2019-03-25T05:54:44.661Z,83.30
2019-03-25T05:57:14.810Z,83.40
2019-03-25T05:59:46.027Z,83.10
2019-03-25T06:02:16.305Z,82.80
2019-03-25T06:04:46.385Z,83.10
2019-03-25T06:07:16.600Z,83.30
2019-03-25T06:09:47.569Z,83.00
2019-03-25T06:12:17.825Z,82.90
2019-03-25T06:14:52.782Z,83.20
2019-03-25T06:17:22.929Z,82.10
2019-03-25T06:19:53.149Z,82.40
2019-03-25T06:22:23.385Z,81.70
2019-03-25T06:24:53.589Z,79.90
2019-03-25T06:27:23.747Z,79.70
2019-03-25T06:29:53.898Z,78.90
2019-03-25T06:32:24.124Z,78.40
2019-03-25T06:34:55.307Z,77.80
2019-03-25T06:37:25.318Z,77.70
2019-03-25T06:39:55.393Z,77.80
2019-03-25T06:42:25.550Z,77.40
2019-03-25T06:44:57.648Z,75.60
2019-03-25T06:47:27.817Z,75.10
2019-03-25T06:49:57.964Z,74.30
2019-03-25T06:52:28.134Z,73.50
2019-03-25T06:54:58.286Z,72.40
2019-03-25T06:57:28.381Z,71.40
2019-03-25T06:59:58.616Z,72.10
2019-03-25T07:02:28.916Z,72.40
2019-03-25T07:04:59.136Z,72.20
2019-03-25T07:07:29.221Z,72.20
2019-03-25T07:09:59.393Z,70.70
2019-03-25T07:12:30.757Z,69.20
2019-03-25T07:15:00.994Z,69.80
2019-03-25T07:17:31.143Z,68.60
2019-03-25T07:20:01.247Z,64.60
2019-03-25T07:22:31.323Z,64.00
2019-03-25T07:25:01.491Z,64.40
2019-03-25T07:27:36.592Z,63.60
2019-03-25T07:30:04.045Z,64.60
2019-03-25T07:32:34.272Z,62.80
2019-03-25T07:35:07.595Z,64.40
2019-03-25T07:37:37.749Z,65.00
2019-03-25T07:40:08.542Z,63.00
2019-03-25T07:42:38.561Z,62.50
2019-03-25T07:45:10.469Z,61.00
2019-03-25T07:47:40.567Z,60.20
2019-03-25T07:50:11.182Z,60.60
2019-03-25T07:52:41.275Z,61.20
2019-03-25T07:55:11.427Z,60.20
2019-03-25T07:57:48.096Z,59.30
2019-03-25T08:00:14.834Z,58.60
2019-03-25T08:02:44.961Z,57.40
2019-03-25T08:05:15.179Z,58.10
2019-03-25T08:07:45.419Z,57.90
2019-03-25T08:10:18.524Z,56.30
2019-03-25T08:12:48.697Z,57.00
2019-03-25T08:15:18.832Z,55.90
2019-03-25T08:17:49.016Z,57.10
2019-03-25T08:20:19.310Z,56.30
2019-03-25T08:22:49.550Z,57.10
2019-03-25T08:25:19.654Z,56.50
2019-03-25T08:27:59.505Z,57.00
2019-03-25T08:30:22.738Z,56.20
2019-03-25T08:32:52.897Z,56.50
2019-03-25T08:35:23.074Z,57.30
2019-03-25T08:37:53.155Z,56.00
2019-03-25T08:40:23.315Z,57.30
2019-03-25T08:42:53.541Z,57.60
2019-03-25T08:45:23.701Z,56.90
2019-03-25T08:47:53.998Z,57.30
2019-03-25T08:50:24.215Z,55.40
2019-03-25T08:52:54.368Z,56.20
2019-03-25T08:55:24.579Z,52.80
2019-03-25T08:57:54.687Z,55.10
2019-03-25T09:00:27.257Z,54.10
2019-03-25T09:03:00.431Z,53.90
2019-03-25T09:05:30.510Z,54.30
2019-03-25T09:08:00.682Z,54.30
2019-03-25T09:10:30.894Z,55.10
2019-03-25T09:13:00.993Z,52.00
2019-03-25T09:15:31.140Z,53.50
2019-03-25T09:18:01.338Z,51.80
2019-03-25T09:20:31.351Z,51.80
2019-03-25T09:23:01.525Z,54.50
2019-03-25T09:25:33.317Z,52.40
2019-03-25T09:28:03.569Z,53.50
2019-03-25T09:30:55.005Z,53.00
2019-03-25T09:33:26.188Z,54.30
2019-03-25T09:35:56.464Z,52.60
2019-03-25T09:38:26.685Z,52.10
2019-03-25T09:40:56.973Z,50.60
2019-03-25T09:43:27.023Z,51.80
2019-03-25T09:45:57.173Z,53.40
2019-03-25T09:48:27.420Z,51.20
2019-03-25T09:50:57.567Z,52.70
2019-03-25T09:53:27.714Z,51.80
2019-03-25T09:55:57.884Z,52.70
2019-03-25T09:58:36.221Z,51.10
2019-03-25T10:00:59.893Z,51.10
2019-03-25T10:03:30.116Z,49.10
2019-03-25T10:06:01.353Z,48.60
2019-03-25T10:08:31.644Z,47.50
2019-03-25T10:11:01.811Z,48.00
2019-03-25T10:13:31.947Z,48.30
2019-03-25T10:16:02.293Z,49.20
2019-03-25T10:18:32.440Z,48.80
2019-03-25T10:21:02.680Z,48.50
2019-03-25T10:23:32.917Z,47.60
2019-03-25T10:26:03.062Z,47.80
2019-03-25T10:28:33.302Z,50.30
2019-03-25T10:31:03.550Z,49.60
2019-03-25T10:33:33.780Z,46.90
2019-03-25T10:36:03.851Z,47.20
2019-03-25T10:38:34.013Z,47.60
2019-03-25T10:41:04.417Z,48.10
2019-03-25T10:43:34.654Z,46.80
2019-03-25T10:46:04.801Z,47.50
2019-03-25T10:48:34.955Z,45.80
2019-03-25T10:51:05.261Z,47.20
2019-03-25T10:53:35.462Z,47.60
2019-03-25T10:56:05.725Z,46.60
2019-03-25T10:58:36.788Z,45.50
2019-03-25T11:01:09.447Z,45.70
2019-03-25T11:03:39.065Z,47.70
2019-03-25T11:06:09.410Z,47.90
2019-03-25T11:08:39.484Z,47.60
2019-03-25T11:11:09.649Z,46.50
2019-03-25T11:13:39.872Z,45.50
2019-03-25T11:16:10.418Z,47.10
2019-03-25T11:18:40.667Z,47.30
2019-03-25T11:21:10.901Z,47.60
2019-03-25T11:23:40.992Z,47.20
2019-03-25T11:26:11.258Z,48.50
2019-03-25T11:28:42.307Z,45.20
2019-03-25T11:31:12.477Z,47.90
2019-03-25T11:33:42.660Z,47.60
2019-03-25T11:36:12.798Z,48.80
2019-03-25T11:38:43.029Z,47.10
2019-03-25T11:41:13.258Z,48.00
2019-03-25T11:43:43.350Z,46.50
2019-03-25T11:46:13.432Z,45.40
2019-03-25T11:48:43.593Z,44.30
2019-03-25T11:51:13.749Z,43.80
2019-03-25T11:53:44.883Z,44.10
2019-03-25T11:56:15.215Z,43.90
2019-03-25T11:58:45.376Z,45.00
2019-03-25T12:01:15.528Z,43.10
2019-03-25T12:03:45.693Z,42.90
2019-03-25T12:06:15.976Z,42.10
2019-03-25T12:08:46.079Z,42.50
2019-03-25T12:11:16.301Z,43.80
2019-03-25T12:13:46.561Z,44.90
2019-03-25T12:16:16.636Z,44.80
2019-03-25T12:18:46.659Z,45.60
2019-03-25T12:21:16.678Z,47.00
2019-03-25T12:23:46.760Z,43.50
2019-03-25T12:26:16.996Z,41.30
2019-03-25T12:28:47.089Z,42.50
2019-03-25T12:31:17.321Z,40.60
2019-03-25T12:33:47.345Z,42.90
2019-03-25T12:36:17.585Z,40.40
2019-03-25T12:38:48.630Z,42.40
2019-03-25T12:41:18.718Z,41.20
2019-03-25T12:43:48.878Z,39.00
2019-03-25T12:46:19.072Z,42.00
2019-03-25T12:48:49.233Z,41.60
2019-03-25T12:51:19.464Z,40.60
2019-03-25T12:53:49.630Z,38.90
2019-03-25T12:56:19.717Z,38.20
2019-03-25T12:58:49.961Z,38.30
2019-03-25T13:01:20.041Z,36.20
2019-03-25T13:03:50.147Z,35.40
2019-03-25T13:06:20.300Z,33.90
2019-03-25T13:08:50.464Z,36.70
2019-03-25T13:11:20.690Z,31.90
2019-03-25T13:13:50.771Z,33.80
2019-03-25T13:16:20.858Z,33.70
2019-03-25T13:18:51.088Z,32.70
2019-03-25T13:21:21.116Z,32.80
2019-03-25T13:23:51.335Z,35.40
2019-03-25T13:26:21.502Z,34.50
2019-03-25T13:29:01.500Z,36.50
2019-03-25T13:31:24.678Z,34.80
2019-03-25T13:33:55.833Z,36.30
2019-03-25T13:36:25.852Z,32.90
2019-03-25T13:38:57.884Z,35.40
2019-03-25T13:41:27.787Z,33.20
2019-03-25T13:43:58.014Z,33.50
2019-03-25T13:46:28.115Z,34.60
2019-03-25T13:48:58.204Z,35.50
2019-03-25T13:51:28.359Z,34.80
2019-03-25T13:53:58.423Z,33.80
2019-03-25T13:56:28.650Z,34.50
2019-03-25T13:58:58.743Z,35.40
2019-03-25T14:01:28.989Z,34.90
2019-03-25T14:03:59.131Z,33.20
2019-03-25T14:06:29.158Z,32.70
2019-03-25T14:08:59.338Z,34.40
2019-03-25T14:11:30.496Z,34.00
2019-03-25T14:17:13.737Z,33.00
2019-03-25T14:19:43.753Z,34.80
2019-03-25T14:22:13.885Z,32.90
2019-03-25T14:24:43.961Z,33.90
2019-03-25T14:27:14.118Z,33.60
2019-03-25T14:29:44.212Z,34.60
2019-03-25T14:32:15.356Z,36.30
2019-03-25T14:34:45.513Z,34.10
2019-03-25T14:37:15.655Z,36.40
2019-03-25T14:39:45.814Z,35.40
2019-03-25T14:42:21.044Z,33.40
2019-03-25T14:44:52.869Z,33.70
2019-03-25T14:47:23.193Z,35.00
2019-03-25T14:49:54.421Z,35.10
2019-03-25T14:52:25.564Z,35.10
2019-03-25T14:54:55.801Z,33.80
2019-03-25T14:57:25.864Z,33.40
2019-03-25T14:59:56.037Z,34.30
2019-03-25T15:02:26.266Z,34.60
2019-03-25T15:04:56.557Z,34.80
2019-03-25T15:07:26.654Z,35.50
2019-03-25T15:09:56.726Z,34.30
2019-03-25T15:12:26.890Z,34.20
2019-03-25T15:14:57.043Z,36.00
2019-03-25T15:17:27.281Z,35.10
2019-03-25T15:19:57.377Z,35.70
2019-03-25T15:22:27.569Z,37.20
2019-03-25T15:24:57.619Z,34.90
2019-03-25T15:27:27.878Z,34.70
2019-03-25T15:29:57.965Z,36.10
2019-03-25T15:32:28.134Z,37.30
2019-03-25T15:34:58.293Z,37.40
2019-03-25T15:37:28.592Z,37.20
2019-03-25T15:39:58.819Z,36.70
2019-03-25T15:42:28.964Z,35.60
2019-03-25T15:44:59.197Z,34.30
2019-03-25T15:47:29.425Z,35.90
2019-03-25T15:49:59.601Z,34.10
2019-03-25T15:52:29.798Z,35.00
2019-03-25T15:54:59.892Z,35.10
2019-03-25T15:57:30.121Z,35.00
2019-03-25T16:00:00.420Z,34.60
2019-03-25T16:02:30.816Z,35.40
2019-03-25T16:05:01.020Z,35.80
2019-03-25T16:07:31.350Z,35.60
2019-03-25T16:10:01.511Z,35.90
2019-03-25T16:12:31.668Z,37.90
2019-03-25T16:15:01.915Z,36.00
2019-03-25T16:17:33.245Z,34.90
2019-03-25T16:20:05.503Z,33.70
2019-03-25T16:22:35.746Z,33.50
2019-03-25T16:25:08.206Z,34.70
2019-03-25T16:27:40.589Z,34.90
2019-03-25T16:30:20.409Z,35.40
2019-03-25T16:32:52.713Z,36.50
2019-03-25T16:35:22.877Z,36.90
2019-03-25T16:37:54.108Z,37.50
2019-03-25T16:40:24.413Z,37.40
2019-03-25T16:42:54.644Z,38.20
2019-03-25T16:45:24.814Z,39.30
2019-03-25T16:47:55.053Z,40.30
2019-03-25T16:50:25.144Z,40.40
2019-03-25T16:52:55.461Z,40.30
2019-03-25T16:55:25.554Z,40.90
2019-03-25T16:57:55.708Z,42.00
2019-03-25T17:00:27.680Z,43.20
2019-03-25T17:02:57.740Z,43.70
2019-03-25T17:05:27.826Z,43.20
2019-03-25T17:07:58.054Z,43.10
2019-03-25T17:10:28.141Z,43.10
2019-03-25T17:12:58.230Z,43.10
2019-03-25T17:15:28.460Z,43.00
2019-03-25T17:17:58.533Z,43.40
2019-03-25T17:20:28.634Z,43.20
2019-03-25T17:22:58.848Z,43.00
2019-03-25T17:25:29.011Z,43.30
2019-03-25T17:27:59.245Z,43.20
2019-03-25T17:30:29.435Z,43.40
2019-03-25T17:32:59.592Z,42.90
2019-03-25T17:35:29.712Z,42.90
2019-03-25T17:37:59.952Z,43.60
2019-03-25T17:40:30.284Z,43.90
2019-03-25T17:43:02.655Z,44.00
2019-03-25T17:45:33.480Z,44.80
2019-03-25T17:48:03.639Z,44.30
2019-03-25T17:50:33.725Z,44.00
2019-03-25T17:53:03.831Z,43.90
2019-03-25T17:55:34.106Z,44.80
2019-03-25T17:58:04.286Z,43.90
2019-03-25T18:00:49.538Z,44.70
2019-03-25T18:03:19.803Z,44.20
2019-03-25T18:05:49.890Z,44.50
2019-03-25T18:08:20.049Z,44.50
2019-03-25T18:10:50.216Z,44.50
2019-03-25T18:13:22.555Z,44.30
2019-03-25T18:15:52.229Z,44.20
2019-03-25T18:18:22.376Z,43.80
2019-03-25T18:20:52.480Z,44.10
2019-03-25T18:23:22.698Z,44.10
2019-03-25T18:25:52.999Z,45.00
2019-03-25T18:28:23.233Z,46.00
2019-03-25T18:30:53.480Z,45.10
2019-03-25T18:33:23.512Z,44.50
2019-03-25T18:35:53.668Z,44.80
2019-03-25T18:38:23.963Z,44.60
2019-03-25T18:40:54.231Z,45.80
2019-03-25T18:43:24.449Z,45.90
2019-03-25T18:45:54.605Z,45.70
2019-03-25T18:48:24.764Z,45.40
2019-03-25T18:50:54.933Z,43.60
2019-03-25T18:53:25.171Z,43.10
2019-03-25T18:55:55.234Z,42.50
2019-03-25T18:58:25.407Z,41.20
2019-03-25T19:00:55.539Z,40.10
2019-03-25T19:03:25.729Z,39.60
2019-03-25T19:05:55.957Z,40.50
2019-03-25T19:08:26.701Z,39.30
2019-03-25T19:10:56.878Z,38.30
2019-03-25T19:13:28.008Z,36.40
2019-03-25T19:15:58.114Z,35.80
2019-03-25T19:18:28.254Z,35.30
2019-03-25T19:20:58.389Z,33.80
2019-03-25T19:23:28.546Z,33.10
2019-03-25T19:25:58.764Z,32.90
2019-03-25T19:28:28.890Z,28.90
2019-03-25T19:30:59.298Z,28.10
2019-03-25T19:33:29.475Z,28.20
2019-03-25T19:35:59.597Z,28.00
2019-03-25T19:38:29.612Z,27.40
2019-03-25T19:40:59.766Z,27.50
2019-03-25T19:43:29.918Z,28.00
2019-03-25T19:46:00.268Z,27.40
2019-03-25T19:48:30.494Z,27.10
2019-03-25T19:51:00.746Z,27.00
2019-03-25T19:53:30.840Z,26.60
2019-03-25T19:56:01.077Z,27.00
2019-03-25T19:58:31.224Z,26.70
2019-03-25T20:01:01.304Z,26.50
2019-03-25T20:03:32.947Z,25.70
2019-03-25T20:06:03.489Z,25.50
2019-03-25T20:08:33.697Z,25.10
2019-03-25T20:11:03.904Z,24.50
2019-03-25T20:13:34.154Z,24.70
2019-03-25T20:16:04.449Z,25.30
2019-03-25T20:18:34.647Z,25.00
2019-03-25T20:21:04.807Z,25.60
2019-03-25T20:23:34.988Z,26.10
2019-03-25T20:26:05.131Z,25.90
2019-03-25T20:28:35.280Z,26.50
2019-03-25T20:31:05.658Z,26.50
2019-03-25T20:33:35.761Z,26.40
2019-03-25T20:36:05.992Z,26.40
2019-03-25T20:38:36.172Z,26.20
2019-03-25T20:41:06.409Z,25.00
2019-03-25T20:43:36.484Z,25.10
2019-03-25T20:46:06.860Z,25.50
2019-03-25T20:48:36.993Z,25.20
2019-03-25T20:51:07.199Z,24.90
2019-03-25T20:53:37.373Z,24.90
2019-03-25T20:56:07.491Z,24.70
2019-03-25T20:58:37.723Z,24.50
2019-03-25T21:01:07.864Z,24.80
2019-03-25T21:03:38.088Z,25.40
2019-03-25T21:06:08.211Z,25.80
2019-03-25T21:08:38.387Z,25.90
2019-03-25T21:11:08.588Z,26.00
2019-03-25T21:13:39.245Z,27.50
2019-03-25T21:16:09.479Z,26.80
2019-03-25T21:18:39.611Z,28.70
2019-03-25T21:21:09.810Z,29.50
2019-03-25T21:23:39.891Z,30.10
2019-03-25T21:26:11.149Z,30.00
2019-03-25T21:28:41.476Z,29.90
2019-03-25T21:31:11.594Z,29.90
2019-03-25T21:33:41.795Z,32.70
2019-03-25T21:36:13.113Z,35.90
2019-03-25T21:38:43.262Z,37.00
2019-03-25T21:41:13.431Z,37.60
2019-03-25T21:43:43.595Z,39.50
2019-03-25T21:46:13.728Z,43.60
2019-03-25T21:48:43.884Z,44.80
2019-03-25T21:51:13.967Z,45.10
2019-03-25T21:53:44.179Z,44.80
2019-03-25T21:56:14.282Z,21.70
2019-03-25T21:58:44.667Z,25.00
2019-03-25T22:01:14.992Z,26.10
2019-03-25T22:03:45.149Z,27.30
2019-03-25T22:06:15.296Z,27.70
2019-03-25T22:08:46.438Z,28.60
2019-03-25T22:11:16.669Z,29.80
2019-03-25T22:13:46.803Z,30.50
2019-03-25T22:16:17.015Z,32.30
2019-03-25T22:18:47.152Z,34.10
2019-03-25T22:21:17.374Z,34.50
2019-03-25T22:23:47.512Z,34.70
2019-03-25T22:26:18.604Z,35.70
2019-03-25T22:28:48.814Z,34.80
2019-03-25T22:31:18.819Z,33.50
2019-03-25T22:33:48.961Z,33.00
2019-03-25T22:36:19.246Z,31.90
2019-03-25T22:38:49.309Z,30.70
2019-03-25T22:41:19.462Z,31.30
2019-03-25T22:43:49.616Z,32.70
2019-03-25T22:46:19.761Z,32.90
2019-03-25T22:48:49.991Z,33.50
2019-03-25T22:51:20.112Z,36.80
2019-03-25T22:53:50.267Z,36.90
2019-03-25T22:56:20.463Z,39.70
2019-03-25T22:58:50.633Z,41.00
2019-03-25T23:01:20.770Z,42.60
2019-03-25T23:03:50.928Z,43.80
2019-03-25T23:06:21.209Z,44.20
2019-03-25T23:08:51.361Z,45.40
2019-03-25T23:11:21.499Z,46.50
2019-03-25T23:13:51.590Z,47.60
2019-03-25T23:16:21.737Z,48.10
2019-03-25T23:18:51.894Z,49.20
2019-03-25T23:21:21.951Z,49.50
2019-03-25T23:23:52.131Z,47.00
2019-03-25T23:26:22.278Z,46.90
2019-03-25T23:28:52.357Z,48.00
2019-03-25T23:31:22.519Z,50.50
2019-03-25T23:33:53.724Z,49.50
2019-03-25T23:36:23.990Z,46.30
2019-03-25T23:38:54.085Z,50.10
2019-03-25T23:41:24.237Z,61.20
2019-03-25T23:43:54.379Z,69.40
2019-03-25T23:46:24.456Z,71.90
2019-03-25T23:48:54.516Z,61.20
2019-03-25T23:51:24.665Z,70.80
2019-03-25T23:53:56.446Z,72.00
2019-03-25T23:56:26.656Z,72.50
2019-03-25T23:58:56.795Z,74.70
